Weather at HOUK (PULUSUK) CIVIL AIRFIELD

Public forecast

Using degrees Celsius for public forecast. Weather courtesy of forecast.io.

Closest aviation weather report (METAR) to HOUK (PULUSUK) CIVIL AIRFIELD

Closest report is Chuuk International Airport, 158.7 nm (294.0 km) ENE.

2024/05/29 18:51 (retrieved 11 minutes ago)

PTKK 291851Z VRB03KT 15SM FEW014 SCT120 BKN280 28/26 A2982 RMK SLP100 T02820262

Closest aviation forecast (TAF) to HOUK (PULUSUK) CIVIL AIRFIELD

Closest forecast is Chuuk International Airport, 158.7 nm (294.0 km) ENE.

2024/05/29 18:27 (retrieved 35 minutes ago)

TAF PTKK 291723Z 2918/3018 05008KT P6SM VCSH FEW012 SCT120